Terminal Aerodrome Forecast
Issued by NWS

Home | Current Version | Previous Version | Text Only | Print | Product List | Glossary On
Versions: 1 2 3 4 5 6 7 8 9 10 11 12 13 14
000
FTUS43 KDTX 312330
TAFYIP
TAF
KYIP 312330Z 0100/0124 36020G30KT 4SM -SHRASN OVC015
     FM010700 36015G25KT P6SM OVC015
     FM011600 36015G25KT P6SM OVC025
     FM012200 36013KT P6SM BKN035=

USA.gov is the U.S. government's official web portal to all federal, state and local government web resources and services.